Terminal Aerodrome Forecast
Issued by NWS

Home | Current Version | Previous Version | Text Only | Print | Product List | Glossary On
Versions: 1 2 3 4 5 6 7 8 9 10 11 12 13 14 15 16 17
000
FTUS44 KBMX 270500
TAFANB
TAF
KANB 270536Z 2706/2806 00000KT 2SM BR SKC
      TEMPO 2706/2708 1/2SM FZFG
     FM270900 34005KT P6SM BKN035
     FM271200 33008KT P6SM OVC025
     FM272200 34008KT P6SM SCT025=

USA.gov is the U.S. government's official web portal to all federal, state and local government web resources and services.